sensor_id;sensor_type;location;lat;lon;timestamp;P1;durP1;ratioP1;P2;durP2;ratioP2
45867;SDS011;31582;45.490;7.860;2023-03-17T00:01:19;12.20;;;9.40;;
45867;SDS011;31582;45.490;7.860;2023-03-17T00:03:46;12.90;;;9.48;;
45867;SDS011;31582;45.490;7.860;2023-03-17T00:06:16;13.38;;;10.32;;
45867;SDS011;31582;45.490;7.860;2023-03-17T00:08:49;14.93;;;10.80;;
45867;SDS011;31582;45.490;7.860;2023-03-17T00:11:16;15.25;;;10.63;;
45867;SDS011;31582;45.490;7.860;2023-03-17T00:13:44;13.50;;;10.80;;
45867;SDS011;31582;45.490;7.860;2023-03-17T00:16:15;14.75;;;11.55;;
45867;SDS011;31582;45.490;7.860;2023-03-17T00:18:45;14.93;;;11.43;;
45867;SDS011;31582;45.490;7.860;2023-03-17T00:21:16;14.88;;;11.20;;
45867;SDS011;31582;45.490;7.860;2023-03-17T00:23:56;12.07;;;9.53;;
45867;SDS011;31582;45.490;7.860;2023-03-17T00:26:25;13.57;;;10.45;;
45867;SDS011;31582;45.490;7.860;2023-03-17T00:28:52;14.07;;;10.40;;
45867;SDS011;31582;45.490;7.860;2023-03-17T00:31:21;11.60;;;9.52;;
45867;SDS011;31582;45.490;7.860;2023-03-17T00:33:50;11.65;;;9.30;;
45867;SDS011;31582;45.490;7.860;2023-03-17T00:36:23;11.40;;;9.65;;
45867;SDS011;31582;45.490;7.860;2023-03-17T00:38:54;13.07;;;9.95;;
45867;SDS011;31582;45.490;7.860;2023-03-17T00:41:22;14.57;;;10.40;;
45867;SDS011;31582;45.490;7.860;2023-03-17T00:43:49;15.05;;;10.63;;
45867;SDS011;31582;45.490;7.860;2023-03-17T00:46:21;13.57;;;9.00;;
45867;SDS011;31582;45.490;7.860;2023-03-17T00:48:55;11.32;;;9.30;;
45867;SDS011;31582;45.490;7.860;2023-03-17T00:51:23;15.05;;;10.43;;
45867;SDS011;31582;45.490;7.860;2023-03-17T00:53:49;14.10;;;10.68;;
45867;SDS011;31582;45.490;7.860;2023-03-17T00:56:18;13.50;;;10.65;;
45867;SDS011;31582;45.490;7.860;2023-03-17T00:58:46;15.00;;;10.65;;
45867;SDS011;31582;45.490;7.860;2023-03-17T01:01:13;14.70;;;10.48;;
45867;SDS011;31582;45.490;7.860;2023-03-17T01:03:41;13.77;;;9.15;;
45867;SDS011;31582;45.490;7.860;2023-03-17T01:06:09;13.40;;;9.55;;
45867;SDS011;31582;45.490;7.860;2023-03-17T01:08:38;15.82;;;11.13;;
45867;SDS011;31582;45.490;7.860;2023-03-17T01:11:09;14.68;;;10.00;;
45867;SDS011;31582;45.490;7.860;2023-03-17T01:13:41;14.10;;;10.30;;
45867;SDS011;31582;45.490;7.860;2023-03-17T01:16:09;17.13;;;12.05;;
45867;SDS011;31582;45.490;7.860;2023-03-17T01:18:36;14.80;;;10.90;;
45867;SDS011;31582;45.490;7.860;2023-03-17T01:21:03;14.90;;;10.48;;
45867;SDS011;31582;45.490;7.860;2023-03-17T01:23:30;14.75;;;10.40;;
45867;SDS011;31582;45.490;7.860;2023-03-17T01:25:57;14.93;;;10.52;;
45867;SDS011;31582;45.490;7.860;2023-03-17T01:28:24;14.02;;;9.90;;
45867;SDS011;31582;45.490;7.860;2023-03-17T01:30:51;12.07;;;8.87;;
45867;SDS011;31582;45.490;7.860;2023-03-17T01:33:18;10.95;;;8.48;;
45867;SDS011;31582;45.490;7.860;2023-03-17T01:35:45;9.23;;;7.70;;
45867;SDS011;31582;45.490;7.860;2023-03-17T01:38:12;9.57;;;7.72;;
45867;SDS011;31582;45.490;7.860;2023-03-17T01:40:45;9.48;;;7.28;;
45867;SDS011;31582;45.490;7.860;2023-03-17T01:43:22;8.57;;;7.20;;
45867;SDS011;31582;45.490;7.860;2023-03-17T01:54:34;9.05;;;7.45;;
45867;SDS011;31582;45.490;7.860;2023-03-17T01:57:19;8.25;;;7.05;;
45867;SDS011;31582;45.490;7.860;2023-03-17T02:00:00;8.52;;;7.47;;
45867;SDS011;31582;45.490;7.860;2023-03-17T02:02:36;9.02;;;7.07;;
